sensor_id;sensor_type;location;lat;lon;timestamp;P1;durP1;ratioP1;P2;durP2;ratioP2
78484;SDS011;67773;50.806;8.776;2023-03-13T00:01:14;12.20;;;4.07;;
78484;SDS011;67773;50.806;8.776;2023-03-13T00:03:42;16.30;;;3.58;;
78484;SDS011;67773;50.806;8.776;2023-03-13T00:06:07;9.03;;;3.07;;
78484;SDS011;67773;50.806;8.776;2023-03-13T00:08:33;17.02;;;4.30;;
78484;SDS011;67773;50.806;8.776;2023-03-13T00:11:01;13.50;;;3.47;;
78484;SDS011;67773;50.806;8.776;2023-03-13T00:13:27;12.32;;;3.60;;
78484;SDS011;67773;50.806;8.776;2023-03-13T00:16:03;14.07;;;3.80;;
78484;SDS011;67773;50.806;8.776;2023-03-13T00:18:30;14.15;;;3.17;;
78484;SDS011;67773;50.806;8.776;2023-03-13T00:21:02;13.77;;;3.53;;
78484;SDS011;67773;50.806;8.776;2023-03-13T00:23:30;8.93;;;2.90;;
78484;SDS011;67773;50.806;8.776;2023-03-13T00:25:59;17.23;;;3.05;;
78484;SDS011;67773;50.806;8.776;2023-03-13T00:28:30;11.63;;;2.78;;
78484;SDS011;67773;50.806;8.776;2023-03-13T00:33:32;10.15;;;3.05;;
78484;SDS011;67773;50.806;8.776;2023-03-13T00:36:02;11.63;;;3.08;;
78484;SDS011;67773;50.806;8.776;2023-03-13T00:38:29;13.57;;;3.92;;
78484;SDS011;67773;50.806;8.776;2023-03-13T00:41:05;13.55;;;3.00;;
78484;SDS011;67773;50.806;8.776;2023-03-13T00:43:35;11.50;;;3.03;;
78484;SDS011;67773;50.806;8.776;2023-03-13T00:46:01;14.90;;;4.20;;
78484;SDS011;67773;50.806;8.776;2023-03-13T00:48:26;13.93;;;3.08;;
78484;SDS011;67773;50.806;8.776;2023-03-13T00:50:52;11.70;;;3.40;;
78484;SDS011;67773;50.806;8.776;2023-03-13T00:53:17;12.98;;;3.80;;
78484;SDS011;67773;50.806;8.776;2023-03-13T00:58:20;9.80;;;3.30;;
78484;SDS011;67773;50.806;8.776;2023-03-13T01:00:46;11.88;;;3.20;;
78484;SDS011;67773;50.806;8.776;2023-03-13T01:03:11;12.65;;;3.97;;
78484;SDS011;67773;50.806;8.776;2023-03-13T01:05:37;11.70;;;3.20;;
78484;SDS011;67773;50.806;8.776;2023-03-13T01:08:02;10.47;;;3.57;;
78484;SDS011;67773;50.806;8.776;2023-03-13T01:10:27;10.10;;;2.95;;
78484;SDS011;67773;50.806;8.776;2023-03-13T01:12:53;12.57;;;3.47;;
78484;SDS011;67773;50.806;8.776;2023-03-13T01:15:18;9.50;;;2.70;;
78484;SDS011;67773;50.806;8.776;2023-03-13T01:17:44;10.37;;;3.70;;
78484;SDS011;67773;50.806;8.776;2023-03-13T01:20:10;12.43;;;3.38;;
78484;SDS011;67773;50.806;8.776;2023-03-13T01:22:36;11.35;;;4.35;;
78484;SDS011;67773;50.806;8.776;2023-03-13T01:25:02;25.17;;;6.28;;
78484;SDS011;67773;50.806;8.776;2023-03-13T01:27:27;10.18;;;4.55;;
78484;SDS011;67773;50.806;8.776;2023-03-13T01:29:53;13.85;;;4.40;;
78484;SDS011;67773;50.806;8.776;2023-03-13T01:32:19;12.40;;;4.33;;
78484;SDS011;67773;50.806;8.776;2023-03-13T01:34:44;10.70;;;3.50;;
78484;SDS011;67773;50.806;8.776;2023-03-13T01:37:09;14.57;;;3.70;;
78484;SDS011;67773;50.806;8.776;2023-03-13T01:39:35;6.95;;;2.60;;
78484;SDS011;67773;50.806;8.776;2023-03-13T01:42:01;11.23;;;3.57;;
78484;SDS011;67773;50.806;8.776;2023-03-13T01:44:27;12.30;;;3.72;;
78484;SDS011;67773;50.806;8.776;2023-03-13T01:46:53;10.37;;;3.40;;
78484;SDS011;67773;50.806;8.776;2023-03-13T01:49:28;9.83;;;3.07;;
78484;SDS011;67773;50.806;8.776;2023-03-13T01:54:35;9.20;;;2.92;;
78484;SDS011;67773;50.806;8.776;2023-03-13T01:57:20;11.80;;;3.53;;
78484;SDS011;67773;50.806;8.776;2023-03-13T01:59:51;12.73;;;3.22;;
78484;SDS011;67773;50.806;8.776;2023-03-13T02:02:21;12.10;;;4.63;;
78484;SDS011;67773;50.806;8.776;2023-03-13T02:04:48;9.98;;;3.03;;
78484;SDS011;67773;50.806;8.776;2023-03-13T02:07:17;12.32;;;3.35;;
78484;SDS011;67773;50.806;8.776;2023-03-13T02:09:47;8.65;;;3.05;;
78484;SDS011;67773;50.806;8.776;2023-03-13T02:12:17;12.30;;;3.33;;
78484;SDS011;67773;50.806;8.776;2023-03-13T02:14:48;11.27;;;3.22;;
78484;SDS011;67773;50.806;8.776;2023-03-13T02:17:14;8.50;;;2.78;;
78484;SDS011;67773;50.806;8.776;2023-03-13T02:19:49;11.27;;;2.67;;
78484;SDS011;67773;50.806;8.776;2023-03-13T02:27:38;14.75;;;3.22;;
78484;SDS011;67773;50.806;8.776;2023-03-13T02:30:04;8.60;;;3.10;;
78484;SDS011;67773;50.806;8.776;2023-03-13T02:32:31;18.38;;;3.67;;
78484;SDS011;67773;50.806;8.776;2023-03-13T02:34:57;8.85;;;2.83;;
78484;SDS011;67773;50.806;8.776;2023-03-13T02:37:28;11.35;;;3.17;;
78484;SDS011;67773;50.806;8.776;2023-03-13T02:39:55;13.07;;;3.08;;
78484;SDS011;67773;50.806;8.776;2023-03-13T02:42:22;9.65;;;3.30;;
78484;SDS011;67773;50.806;8.776;2023-03-13T02:44:48;13.35;;;3.53;;
78484;SDS011;67773;50.806;8.776;2023-03-13T02:47:17;13.13;;;3.35;;
78484;SDS011;67773;50.806;8.776;2023-03-13T02:49:43;12.80;;;2.97;;
78484;SDS011;67773;50.806;8.776;2023-03-13T02:54:43;8.98;;;2.80;;
78484;SDS011;67773;50.806;8.776;2023-03-13T02:57:11;8.02;;;3.33;;
78484;SDS011;67773;50.806;8.776;2023-03-13T02:59:36;8.63;;;3.33;;
78484;SDS011;67773;50.806;8.776;2023-03-13T03:02:02;11.80;;;3.03;;
78484;SDS011;67773;50.806;8.776;2023-03-13T03:04:28;12.60;;;3.25;;
78484;SDS011;67773;50.806;8.776;2023-03-13T03:06:54;8.85;;;3.05;;
78484;SDS011;67773;50.806;8.776;2023-03-13T03:09:19;7.68;;;3.10;;
78484;SDS011;67773;50.806;8.776;2023-03-13T03:11:46;13.18;;;3.40;;
78484;SDS011;67773;50.806;8.776;2023-03-13T03:14:12;10.70;;;2.92;;
78484;SDS011;67773;50.806;8.776;2023-03-13T03:16:37;12.23;;;3.58;;
78484;SDS011;67773;50.806;8.776;2023-03-13T03:19:03;17.50;;;5.20;;
78484;SDS011;67773;50.806;8.776;2023-03-13T03:21:30;19.20;;;4.70;;
78484;SDS011;67773;50.806;8.776;2023-03-13T03:23:56;11.93;;;3.13;;
78484;SDS011;67773;50.806;8.776;2023-03-13T03:26:21;10.48;;;2.85;;
78484;SDS011;67773;50.806;8.776;2023-03-13T03:28:47;15.70;;;3.20;;
78484;SDS011;67773;50.806;8.776;2023-03-13T03:31:12;8.93;;;2.73;;
78484;SDS011;67773;50.806;8.776;2023-03-13T03:33:39;19.17;;;3.53;;
78484;SDS011;67773;50.806;8.776;2023-03-13T03:36:06;20.58;;;3.45;;
78484;SDS011;67773;50.806;8.776;2023-03-13T03:38:34;13.13;;;3.10;;
78484;SDS011;67773;50.806;8.776;2023-03-13T03:40:59;13.02;;;2.75;;
78484;SDS011;67773;50.806;8.776;2023-03-13T03:43:25;13.85;;;4.20;;
78484;SDS011;67773;50.806;8.776;2023-03-13T03:45:51;14.95;;;3.58;;
78484;SDS011;67773;50.806;8.776;2023-03-13T03:48:16;14.67;;;3.10;;
78484;SDS011;67773;50.806;8.776;2023-03-13T03:50:41;13.38;;;3.40;;
78484;SDS011;67773;50.806;8.776;2023-03-13T03:53:07;13.05;;;2.60;;
78484;SDS011;67773;50.806;8.776;2023-03-13T03:55:33;15.48;;;3.58;;
78484;SDS011;67773;50.806;8.776;2023-03-13T03:57:59;13.13;;;3.10;;
78484;SDS011;67773;50.806;8.776;2023-03-13T04:00:24;14.03;;;3.03;;
78484;SDS011;67773;50.806;8.776;2023-03-13T04:02:49;10.07;;;3.22;;
78484;SDS011;67773;50.806;8.776;2023-03-13T04:05:15;9.65;;;3.58;;
78484;SDS011;67773;50.806;8.776;2023-03-13T04:07:40;12.27;;;3.30;;
78484;SDS011;67773;50.806;8.776;2023-03-13T04:10:06;14.70;;;4.03;;
78484;SDS011;67773;50.806;8.776;2023-03-13T04:12:32;9.05;;;3.03;;
78484;SDS011;67773;50.806;8.776;2023-03-13T04:14:57;9.27;;;3.03;;
78484;SDS011;67773;50.806;8.776;2023-03-13T04:17:22;10.70;;;2.90;;
78484;SDS011;67773;50.806;8.776;2023-03-13T04:19:48;13.57;;;3.27;;
78484;SDS011;67773;50.806;8.776;2023-03-13T04:22:13;7.67;;;2.40;;
78484;SDS011;67773;50.806;8.776;2023-03-13T04:24:38;10.40;;;3.20;;
78484;SDS011;67773;50.806;8.776;2023-03-13T04:27:04;11.17;;;3.33;;
78484;SDS011;67773;50.806;8.776;2023-03-13T04:29:30;9.48;;;3.15;;
78484;SDS011;67773;50.806;8.776;2023-03-13T04:31:59;8.27;;;3.50;;
78484;SDS011;67773;50.806;8.776;2023-03-13T04:34:24;14.45;;;3.17;;
78484;SDS011;67773;50.806;8.776;2023-03-13T04:36:49;15.00;;;3.13;;
78484;SDS011;67773;50.806;8.776;2023-03-13T04:39:15;12.38;;;3.35;;
78484;SDS011;67773;50.806;8.776;2023-03-13T04:41:40;13.47;;;3.17;;
78484;SDS011;67773;50.806;8.776;2023-03-13T04:44:05;12.77;;;3.37;;
78484;SDS011;67773;50.806;8.776;2023-03-13T04:46:31;12.73;;;4.47;;
78484;SDS011;67773;50.806;8.776;2023-03-13T04:48:56;10.60;;;3.10;;
78484;SDS011;67773;50.806;8.776;2023-03-13T04:51:22;14.27;;;3.30;;
78484;SDS011;67773;50.806;8.776;2023-03-13T04:53:47;13.40;;;2.80;;
78484;SDS011;67773;50.806;8.776;2023-03-13T04:56:15;12.43;;;3.15;;
78484;SDS011;67773;50.806;8.776;2023-03-13T04:58:46;9.57;;;2.70;;
78484;SDS011;67773;50.806;8.776;2023-03-13T05:01:11;11.47;;;2.97;;
78484;SDS011;67773;50.806;8.776;2023-03-13T05:03:37;12.53;;;3.90;;
78484;SDS011;67773;50.806;8.776;2023-03-13T05:06:02;9.07;;;3.80;;
78484;SDS011;67773;50.806;8.776;2023-03-13T05:08:28;8.90;;;2.90;;
78484;SDS011;67773;50.806;8.776;2023-03-13T05:10:53;9.40;;;3.33;;
78484;SDS011;67773;50.806;8.776;2023-03-13T05:13:18;7.77;;;2.90;;
78484;SDS011;67773;50.806;8.776;2023-03-13T05:15:43;8.27;;;2.33;;
78484;SDS011;67773;50.806;8.776;2023-03-13T05:18:09;10.23;;;2.40;;
78484;SDS011;67773;50.806;8.776;2023-03-13T05:20:34;11.47;;;3.07;;
78484;SDS011;67773;50.806;8.776;2023-03-13T05:22:59;12.87;;;3.63;;
78484;SDS011;67773;50.806;8.776;2023-03-13T05:25:25;9.50;;;2.93;;
78484;SDS011;67773;50.806;8.776;2023-03-13T05:27:50;11.10;;;2.73;;
78484;SDS011;67773;50.806;8.776;2023-03-13T05:30:15;17.40;;;3.47;;
78484;SDS011;67773;50.806;8.776;2023-03-13T05:32:40;13.70;;;3.30;;
78484;SDS011;67773;50.806;8.776;2023-03-13T05:35:06;5.83;;;1.73;;
78484;SDS011;67773;50.806;8.776;2023-03-13T05:37:31;8.20;;;3.00;;
78484;SDS011;67773;50.806;8.776;2023-03-13T05:39:57;7.80;;;2.50;;
78484;SDS011;67773;50.806;8.776;2023-03-13T05:42:22;10.43;;;2.73;;
78484;SDS011;67773;50.806;8.776;2023-03-13T05:44:47;10.93;;;2.70;;
78484;SDS011;67773;50.806;8.776;2023-03-13T05:47:13;6.63;;;2.40;;
78484;SDS011;67773;50.806;8.776;2023-03-13T05:49:38;7.03;;;2.60;;
78484;SDS011;67773;50.806;8.776;2023-03-13T05:52:03;26.83;;;6.17;;
78484;SDS011;67773;50.806;8.776;2023-03-13T05:54:29;14.18;;;3.67;;
78484;SDS011;67773;50.806;8.776;2023-03-13T05:56:54;11.23;;;2.60;;
78484;SDS011;67773;50.806;8.776;2023-03-13T05:59:20;12.93;;;2.87;;
78484;SDS011;67773;50.806;8.776;2023-03-13T06:01:45;9.20;;;3.03;;
78484;SDS011;67773;50.806;8.776;2023-03-13T06:04:10;9.87;;;2.50;;
78484;SDS011;67773;50.806;8.776;2023-03-13T06:06:35;7.63;;;2.17;;
78484;SDS011;67773;50.806;8.776;2023-03-13T06:09:01;9.87;;;4.07;;
78484;SDS011;67773;50.806;8.776;2023-03-13T06:11:26;20.33;;;8.53;;
78484;SDS011;67773;50.806;8.776;2023-03-13T06:13:51;11.00;;;3.40;;
78484;SDS011;67773;50.806;8.776;2023-03-13T06:16:17;7.68;;;4.07;;
78484;SDS011;67773;50.806;8.776;2023-03-13T06:18:42;10.90;;;3.63;;
78484;SDS011;67773;50.806;8.776;2023-03-13T06:21:08;13.82;;;3.03;;
78484;SDS011;67773;50.806;8.776;2023-03-13T06:23:33;10.45;;;2.60;;
78484;SDS011;67773;50.806;8.776;2023-03-13T06:25:59;11.75;;;3.17;;
78484;SDS011;67773;50.806;8.776;2023-03-13T06:28:25;9.20;;;3.20;;
78484;SDS011;67773;50.806;8.776;2023-03-13T06:30:50;10.30;;;3.50;;
78484;SDS011;67773;50.806;8.776;2023-03-13T06:33:16;8.75;;;2.63;;
78484;SDS011;67773;50.806;8.776;2023-03-13T06:35:42;10.43;;;3.13;;
78484;SDS011;67773;50.806;8.776;2023-03-13T06:38:08;9.73;;;2.80;;
78484;SDS011;67773;50.806;8.776;2023-03-13T06:40:34;7.88;;;2.88;;
78484;SDS011;67773;50.806;8.776;2023-03-13T06:43:00;13.90;;;5.07;;
78484;SDS011;67773;50.806;8.776;2023-03-13T06:45:25;9.05;;;3.53;;
78484;SDS011;67773;50.806;8.776;2023-03-13T06:47:50;12.70;;;3.27;;
78484;SDS011;67773;50.806;8.776;2023-03-13T06:50:16;11.10;;;2.97;;
78484;SDS011;67773;50.806;8.776;2023-03-13T06:52:42;7.95;;;3.15;;
78484;SDS011;67773;50.806;8.776;2023-03-13T06:55:08;8.70;;;2.97;;
78484;SDS011;67773;50.806;8.776;2023-03-13T06:57:34;8.23;;;3.92;;
78484;SDS011;67773;50.806;8.776;2023-03-13T06:59:59;8.47;;;3.13;;
78484;SDS011;67773;50.806;8.776;2023-03-13T07:02:24;11.07;;;3.50;;
78484;SDS011;67773;50.806;8.776;2023-03-13T07:04:50;8.32;;;3.70;;
78484;SDS011;67773;50.806;8.776;2023-03-13T07:07:15;10.90;;;3.67;;
78484;SDS011;67773;50.806;8.776;2023-03-13T07:09:41;9.27;;;3.78;;
78484;SDS011;67773;50.806;8.776;2023-03-13T07:12:06;13.60;;;4.80;;
78484;SDS011;67773;50.806;8.776;2023-03-13T07:14:31;10.70;;;4.70;;
78484;SDS011;67773;50.806;8.776;2023-03-13T07:16:57;11.70;;;4.07;;
78484;SDS011;67773;50.806;8.776;2023-03-13T07:19:23;7.22;;;4.05;;
78484;SDS011;67773;50.806;8.776;2023-03-13T07:21:48;11.77;;;5.05;;
78484;SDS011;67773;50.806;8.776;2023-03-13T07:24:14;9.93;;;5.00;;
78484;SDS011;67773;50.806;8.776;2023-03-13T07:26:39;10.27;;;4.68;;
78484;SDS011;67773;50.806;8.776;2023-03-13T07:29:04;10.97;;;5.50;;
78484;SDS011;67773;50.806;8.776;2023-03-13T07:31:30;10.20;;;4.73;;
78484;SDS011;67773;50.806;8.776;2023-03-13T07:33:57;13.60;;;4.75;;
78484;SDS011;67773;50.806;8.776;2023-03-13T07:36:23;10.60;;;4.78;;
78484;SDS011;67773;50.806;8.776;2023-03-13T07:38:49;8.88;;;4.45;;
78484;SDS011;67773;50.806;8.776;2023-03-13T07:41:15;8.52;;;4.30;;
78484;SDS011;67773;50.806;8.776;2023-03-13T07:43:41;11.00;;;4.82;;
78484;SDS011;67773;50.806;8.776;2023-03-13T07:46:07;9.38;;;4.35;;
78484;SDS011;67773;50.806;8.776;2023-03-13T07:48:36;11.80;;;6.53;;
78484;SDS011;67773;50.806;8.776;2023-03-13T07:51:04;8.52;;;3.97;;
78484;SDS011;67773;50.806;8.776;2023-03-13T07:53:30;7.18;;;3.58;;
78484;SDS011;67773;50.806;8.776;2023-03-13T07:56:00;5.30;;;3.13;;
78484;SDS011;67773;50.806;8.776;2023-03-13T07:58:28;5.75;;;3.22;;
78484;SDS011;67773;50.806;8.776;2023-03-13T08:00:55;4.72;;;2.90;;
78484;SDS011;67773;50.806;8.776;2023-03-13T08:03:22;5.07;;;2.92;;
78484;SDS011;67773;50.806;8.776;2023-03-13T08:06:04;6.45;;;3.22;;
78484;SDS011;67773;50.806;8.776;2023-03-13T08:08:32;4.93;;;2.88;;
78484;SDS011;67773;50.806;8.776;2023-03-13T08:11:04;4.70;;;2.88;;
78484;SDS011;67773;50.806;8.776;2023-03-13T08:13:34;7.97;;;3.30;;
78484;SDS011;67773;50.806;8.776;2023-03-13T08:16:00;5.07;;;2.78;;
78484;SDS011;67773;50.806;8.776;2023-03-13T08:18:27;5.03;;;2.65;;
78484;SDS011;67773;50.806;8.776;2023-03-13T08:20:52;7.47;;;3.10;;
78484;SDS011;67773;50.806;8.776;2023-03-13T08:23:17;7.10;;;3.03;;
78484;SDS011;67773;50.806;8.776;2023-03-13T08:25:43;5.70;;;3.87;;
78484;SDS011;67773;50.806;8.776;2023-03-13T08:28:08;6.87;;;3.40;;
78484;SDS011;67773;50.806;8.776;2023-03-13T08:30:34;6.55;;;3.30;;
78484;SDS011;67773;50.806;8.776;2023-03-13T08:33:00;6.63;;;3.17;;
78484;SDS011;67773;50.806;8.776;2023-03-13T08:35:25;5.70;;;3.03;;
78484;SDS011;67773;50.806;8.776;2023-03-13T08:37:52;5.38;;;2.75;;
78484;SDS011;67773;50.806;8.776;2023-03-13T08:40:17;4.30;;;2.30;;
78484;SDS011;67773;50.806;8.776;2023-03-13T08:42:43;3.47;;;2.00;;
78484;SDS011;67773;50.806;8.776;2023-03-13T08:45:08;3.27;;;1.70;;
78484;SDS011;67773;50.806;8.776;2023-03-13T08:47:34;5.20;;;1.90;;
78484;SDS011;67773;50.806;8.776;2023-03-13T08:49:59;10.07;;;4.37;;
78484;SDS011;67773;50.806;8.776;2023-03-13T08:52:24;8.02;;;4.80;;
78484;SDS011;67773;50.806;8.776;2023-03-13T08:54:50;2.50;;;1.58;;
78484;SDS011;67773;50.806;8.776;2023-03-13T08:57:15;3.53;;;1.23;;
78484;SDS011;67773;50.806;8.776;2023-03-13T08:59:41;4.57;;;1.65;;
78484;SDS011;67773;50.806;8.776;2023-03-13T09:02:07;3.67;;;1.43;;
78484;SDS011;67773;50.806;8.776;2023-03-13T09:04:33;3.53;;;1.48;;
78484;SDS011;67773;50.806;8.776;2023-03-13T09:06:58;3.17;;;1.53;;
78484;SDS011;67773;50.806;8.776;2023-03-13T09:09:24;2.57;;;1.20;;
78484;SDS011;67773;50.806;8.776;2023-03-13T09:11:49;2.40;;;1.30;;
78484;SDS011;67773;50.806;8.776;2023-03-13T09:14:14;3.13;;;1.50;;
78484;SDS011;67773;50.806;8.776;2023-03-13T09:16:40;2.78;;;1.23;;
78484;SDS011;67773;50.806;8.776;2023-03-13T09:19:05;5.73;;;1.30;;
78484;SDS011;67773;50.806;8.776;2023-03-13T09:21:32;4.13;;;1.58;;
78484;SDS011;67773;50.806;8.776;2023-03-13T09:23:59;6.07;;;1.15;;
78484;SDS011;67773;50.806;8.776;2023-03-13T09:26:26;2.10;;;1.13;;
78484;SDS011;67773;50.806;8.776;2023-03-13T09:28:52;4.15;;;1.67;;
78484;SDS011;67773;50.806;8.776;2023-03-13T09:31:19;2.95;;;1.30;;
78484;SDS011;67773;50.806;8.776;2023-03-13T09:33:48;5.03;;;1.60;;
78484;SDS011;67773;50.806;8.776;2023-03-13T09:36:14;4.93;;;1.63;;
78484;SDS011;67773;50.806;8.776;2023-03-13T09:38:41;2.65;;;1.20;;
78484;SDS011;67773;50.806;8.776;2023-03-13T09:41:26;5.68;;;2.58;;
78484;SDS011;67773;50.806;8.776;2023-03-13T09:46:59;3.30;;;1.35;;
78484;SDS011;67773;50.806;8.776;2023-03-13T09:54:51;4.50;;;1.60;;
78484;SDS011;67773;50.806;8.776;2023-03-13T10:00:01;3.85;;;1.60;;
78484;SDS011;67773;50.806;8.776;2023-03-13T10:02:30;3.75;;;1.60;;
78484;SDS011;67773;50.806;8.776;2023-03-13T10:05:17;20.50;;;10.10;;
78484;SDS011;67773;50.806;8.776;2023-03-13T10:07:46;2.67;;;1.50;;
78484;SDS011;67773;50.806;8.776;2023-03-13T10:10:12;5.15;;;1.75;;
78484;SDS011;67773;50.806;8.776;2023-03-13T10:12:44;2.90;;;1.52;;
78484;SDS011;67773;50.806;8.776;2023-03-13T10:18:09;3.15;;;1.70;;
78484;SDS011;67773;50.806;8.776;2023-03-13T10:20:38;3.30;;;1.55;;
78484;SDS011;67773;50.806;8.776;2023-03-13T10:23:06;4.72;;;1.48;;
78484;SDS011;67773;50.806;8.776;2023-03-13T10:25:38;6.15;;;2.10;;
78484;SDS011;67773;50.806;8.776;2023-03-13T10:28:04;2.92;;;1.73;;
78484;SDS011;67773;50.806;8.776;2023-03-13T10:30:34;5.05;;;1.50;;
78484;SDS011;67773;50.806;8.776;2023-03-13T10:35:33;5.22;;;1.77;;
78484;SDS011;67773;50.806;8.776;2023-03-13T10:38:21;4.05;;;1.70;;
78484;SDS011;67773;50.806;8.776;2023-03-13T10:41:06;2.30;;;1.40;;
78484;SDS011;67773;50.806;8.776;2023-03-13T10:43:48;2.20;;;1.40;;
78484;SDS011;67773;50.806;8.776;2023-03-13T10:46:23;4.50;;;1.60;;
78484;SDS011;67773;50.806;8.776;2023-03-13T10:48:49;3.25;;;1.70;;
78484;SDS011;67773;50.806;8.776;2023-03-13T10:51:20;2.80;;;1.63;;
78484;SDS011;67773;50.806;8.776;2023-03-13T10:53:47;2.08;;;1.25;;
78484;SDS011;67773;50.806;8.776;2023-03-13T10:56:14;3.70;;;1.52;;
78484;SDS011;67773;50.806;8.776;2023-03-13T10:58:44;2.13;;;1.25;;
78484;SDS011;67773;50.806;8.776;2023-03-13T11:01:21;3.10;;;1.17;;
78484;SDS011;67773;50.806;8.776;2023-03-13T11:03:53;2.00;;;1.25;;
78484;SDS011;67773;50.806;8.776;2023-03-13T11:06:32;2.28;;;1.15;;
78484;SDS011;67773;50.806;8.776;2023-03-13T11:11:45;2.08;;;1.10;;
78484;SDS011;67773;50.806;8.776;2023-03-13T11:14:17;5.60;;;0.98;;
78484;SDS011;67773;50.806;8.776;2023-03-13T11:16:51;4.38;;;1.30;;
78484;SDS011;67773;50.806;8.776;2023-03-13T11:24:43;2.22;;;0.90;;
78484;SDS011;67773;50.806;8.776;2023-03-13T11:27:23;2.67;;;1.35;;
78484;SDS011;67773;50.806;8.776;2023-03-13T11:33:04;1.80;;;1.00;;
78484;SDS011;67773;50.806;8.776;2023-03-13T11:38:27;2.65;;;1.40;;
78484;SDS011;67773;50.806;8.776;2023-03-13T11:41:18;4.38;;;1.40;;
78484;SDS011;67773;50.806;8.776;2023-03-13T11:49:19;2.13;;;1.20;;
78484;SDS011;67773;50.806;8.776;2023-03-13T11:51:52;2.78;;;1.50;;
78484;SDS011;67773;50.806;8.776;2023-03-13T11:54:32;14.15;;;7.80;;
78484;SDS011;67773;50.806;8.776;2023-03-13T11:57:11;3.90;;;1.30;;
78484;SDS011;67773;50.806;8.776;2023-03-13T11:59:50;5.55;;;1.63;;
78484;SDS011;67773;50.806;8.776;2023-03-13T12:05:00;2.55;;;1.40;;
78484;SDS011;67773;50.806;8.776;2023-03-13T12:10:11;2.38;;;1.20;;
78484;SDS011;67773;50.806;8.776;2023-03-13T12:12:48;3.00;;;1.55;;
78484;SDS011;67773;50.806;8.776;2023-03-13T12:15:24;2.15;;;1.30;;
78484;SDS011;67773;50.806;8.776;2023-03-13T12:18:04;5.57;;;1.90;;
78484;SDS011;67773;50.806;8.776;2023-03-13T12:25:48;3.10;;;2.10;;
78484;SDS011;67773;50.806;8.776;2023-03-13T12:28:36;3.13;;;1.60;;
78484;SDS011;67773;50.806;8.776;2023-03-13T12:37:11;3.25;;;1.85;;
78484;SDS011;67773;50.806;8.776;2023-03-13T12:45:36;4.05;;;2.13;;
78484;SDS011;67773;50.806;8.776;2023-03-13T12:51:19;2.92;;;1.85;;
78484;SDS011;67773;50.806;8.776;2023-03-13T12:59:39;3.17;;;1.90;;
78484;SDS011;67773;50.806;8.776;2023-03-13T13:02:15;2.22;;;1.58;;
78484;SDS011;67773;50.806;8.776;2023-03-13T13:04:45;3.40;;;1.92;;
78484;SDS011;67773;50.806;8.776;2023-03-13T13:07:26;3.50;;;1.42;;
78484;SDS011;67773;50.806;8.776;2023-03-13T13:12:40;3.10;;;2.10;;
78484;SDS011;67773;50.806;8.776;2023-03-13T13:15:26;2.95;;;2.20;;
78484;SDS011;67773;50.806;8.776;2023-03-13T13:21:37;3.15;;;1.95;;
78484;SDS011;67773;50.806;8.776;2023-03-13T13:23:41;4.25;;;2.33;;
78484;SDS011;67773;50.806;8.776;2023-03-13T13:28:53;9.98;;;6.13;;
78484;SDS011;67773;50.806;8.776;2023-03-13T13:36:51;4.35;;;2.58;;
78484;SDS011;67773;50.806;8.776;2023-03-13T13:39:38;3.08;;;2.00;;
78484;SDS011;67773;50.806;8.776;2023-03-13T13:44:57;5.03;;;2.17;;
78484;SDS011;67773;50.806;8.776;2023-03-13T13:47:24;3.90;;;2.50;;
78484;SDS011;67773;50.806;8.776;2023-03-13T13:49:55;3.80;;;2.50;;
78484;SDS011;67773;50.806;8.776;2023-03-13T13:55:03;3.35;;;2.38;;
78484;SDS011;67773;50.806;8.776;2023-03-13T14:00:54;4.45;;;3.15;;
78484;SDS011;67773;50.806;8.776;2023-03-13T14:03:24;5.35;;;3.05;;
78484;SDS011;67773;50.806;8.776;2023-03-13T14:06:02;4.47;;;3.05;;
78484;SDS011;67773;50.806;8.776;2023-03-13T14:08:39;6.72;;;3.55;;
78484;SDS011;67773;50.806;8.776;2023-03-13T14:11:25;6.13;;;3.17;;
78484;SDS011;67773;50.806;8.776;2023-03-13T14:16:37;3.83;;;2.78;;
78484;SDS011;67773;50.806;8.776;2023-03-13T14:19:03;5.85;;;2.95;;
78484;SDS011;67773;50.806;8.776;2023-03-13T14:21:28;6.67;;;3.00;;
78484;SDS011;67773;50.806;8.776;2023-03-13T14:23:54;5.90;;;3.65;;
78484;SDS011;67773;50.806;8.776;2023-03-13T14:26:26;6.03;;;4.03;;
78484;SDS011;67773;50.806;8.776;2023-03-13T14:28:54;6.15;;;3.67;;
78484;SDS011;67773;50.806;8.776;2023-03-13T14:33:54;7.55;;;4.13;;
78484;SDS011;67773;50.806;8.776;2023-03-13T14:36:24;7.20;;;3.45;;
78484;SDS011;67773;50.806;8.776;2023-03-13T14:38:51;5.80;;;3.90;;
78484;SDS011;67773;50.806;8.776;2023-03-13T14:41:22;6.90;;;3.47;;
78484;SDS011;67773;50.806;8.776;2023-03-13T14:43:52;5.90;;;3.90;;
78484;SDS011;67773;50.806;8.776;2023-03-13T14:46:28;6.43;;;3.55;;
78484;SDS011;67773;50.806;8.776;2023-03-13T14:48:55;6.15;;;3.95;;
78484;SDS011;67773;50.806;8.776;2023-03-13T14:51:24;6.07;;;3.60;;
78484;SDS011;67773;50.806;8.776;2023-03-13T14:53:55;7.60;;;4.07;;
78484;SDS011;67773;50.806;8.776;2023-03-13T14:56:32;4.97;;;3.63;;
78484;SDS011;67773;50.806;8.776;2023-03-13T14:59:07;5.80;;;3.70;;
78484;SDS011;67773;50.806;8.776;2023-03-13T15:01:41;6.07;;;3.55;;
78484;SDS011;67773;50.806;8.776;2023-03-13T15:04:07;10.23;;;4.65;;
78484;SDS011;67773;50.806;8.776;2023-03-13T15:06:32;7.35;;;3.70;;
78484;SDS011;67773;50.806;8.776;2023-03-13T15:09:17;9.82;;;4.40;;
78484;SDS011;67773;50.806;8.776;2023-03-13T15:11:52;4.30;;;3.20;;
78484;SDS011;67773;50.806;8.776;2023-03-13T15:17:21;6.88;;;3.47;;
78484;SDS011;67773;50.806;8.776;2023-03-13T15:19:55;5.50;;;3.00;;
78484;SDS011;67773;50.806;8.776;2023-03-13T15:22:28;7.57;;;3.25;;
78484;SDS011;67773;50.806;8.776;2023-03-13T15:24:55;6.35;;;3.00;;
78484;SDS011;67773;50.806;8.776;2023-03-13T15:27:22;5.70;;;3.03;;
78484;SDS011;67773;50.806;8.776;2023-03-13T15:29:49;8.25;;;3.20;;
78484;SDS011;67773;50.806;8.776;2023-03-13T15:32:27;9.43;;;3.17;;
78484;SDS011;67773;50.806;8.776;2023-03-13T15:34:56;8.32;;;3.78;;
78484;SDS011;67773;50.806;8.776;2023-03-13T15:37:22;4.45;;;3.10;;
78484;SDS011;67773;50.806;8.776;2023-03-13T15:39:53;5.53;;;3.70;;
78484;SDS011;67773;50.806;8.776;2023-03-13T15:42:19;4.68;;;3.00;;
78484;SDS011;67773;50.806;8.776;2023-03-13T15:44:45;5.28;;;3.05;;
78484;SDS011;67773;50.806;8.776;2023-03-13T15:47:17;7.37;;;3.87;;
78484;SDS011;67773;50.806;8.776;2023-03-13T15:49:43;5.30;;;3.40;;
78484;SDS011;67773;50.806;8.776;2023-03-13T15:52:16;6.85;;;3.40;;
78484;SDS011;67773;50.806;8.776;2023-03-13T15:54:44;5.35;;;3.35;;
78484;SDS011;67773;50.806;8.776;2023-03-13T15:57:11;5.88;;;3.30;;
78484;SDS011;67773;50.806;8.776;2023-03-13T15:59:39;6.22;;;3.53;;
78484;SDS011;67773;50.806;8.776;2023-03-13T16:02:10;4.35;;;3.28;;
78484;SDS011;67773;50.806;8.776;2023-03-13T16:04:44;5.03;;;2.80;;
78484;SDS011;67773;50.806;8.776;2023-03-13T16:07:13;4.18;;;3.15;;
78484;SDS011;67773;50.806;8.776;2023-03-13T16:09:41;8.20;;;3.90;;
78484;SDS011;67773;50.806;8.776;2023-03-13T16:12:07;6.97;;;3.05;;
78484;SDS011;67773;50.806;8.776;2023-03-13T16:14:34;4.15;;;3.20;;
78484;SDS011;67773;50.806;8.776;2023-03-13T16:16:59;4.10;;;2.40;;
78484;SDS011;67773;50.806;8.776;2023-03-13T16:19:26;5.68;;;2.75;;
78484;SDS011;67773;50.806;8.776;2023-03-13T16:21:52;8.38;;;4.20;;
78484;SDS011;67773;50.806;8.776;2023-03-13T16:24:17;3.60;;;2.43;;
78484;SDS011;67773;50.806;8.776;2023-03-13T16:26:44;3.97;;;2.40;;
78484;SDS011;67773;50.806;8.776;2023-03-13T16:29:13;4.67;;;2.57;;
78484;SDS011;67773;50.806;8.776;2023-03-13T16:31:40;4.95;;;2.67;;
78484;SDS011;67773;50.806;8.776;2023-03-13T16:34:06;4.28;;;2.47;;
78484;SDS011;67773;50.806;8.776;2023-03-13T16:36:33;4.80;;;2.28;;
78484;SDS011;67773;50.806;8.776;2023-03-13T16:39:00;3.75;;;2.53;;
78484;SDS011;67773;50.806;8.776;2023-03-13T16:41:27;3.28;;;2.05;;
78484;SDS011;67773;50.806;8.776;2023-03-13T16:43:53;2.80;;;1.77;;